sensor_id;sensor_type;location;lat;lon;timestamp;P1;durP1;ratioP1;P2;durP2;ratioP2
78079;SDS011;67298;51.322;5.958;2023-04-03T17:29:40;1.2;;;0.6;;
78079;SDS011;67298;51.322;5.958;2023-04-03T17:34:20;3.0;;;1.3;;
78079;SDS011;67298;51.322;5.958;2023-04-03T17:39:02;2.9;;;1.3;;
78079;SDS011;67298;51.322;5.958;2023-04-03T17:43:42;3.0;;;1.4;;
78079;SDS011;67298;51.322;5.958;2023-04-03T17:48:22;2.8;;;1.4;;
78079;SDS011;67298;51.322;5.958;2023-04-03T17:53:02;1.9;;;1.1;;
78079;SDS011;67298;51.322;5.958;2023-04-03T17:57:43;3.7;;;1.2;;
78079;SDS011;67298;51.322;5.958;2023-04-03T18:02:22;2.3;;;1.2;;
78079;SDS011;67298;51.322;5.958;2023-04-03T18:07:02;3.4;;;1.8;;
78079;SDS011;67298;51.322;5.958;2023-04-03T18:11:42;3.0;;;1.6;;
78079;SDS011;67298;51.322;5.958;2023-04-03T18:16:23;2.8;;;1.6;;
78079;SDS011;67298;51.322;5.958;2023-04-03T18:21:02;2.6;;;1.5;;
78079;SDS011;67298;51.322;5.958;2023-04-03T18:25:42;2.9;;;1.6;;
78079;SDS011;67298;51.322;5.958;2023-04-03T18:30:22;3.2;;;1.6;;
78079;SDS011;67298;51.322;5.958;2023-04-03T18:35:02;3.2;;;1.6;;
78079;SDS011;67298;51.322;5.958;2023-04-03T18:39:43;1.8;;;1.0;;
78079;SDS011;67298;51.322;5.958;2023-04-03T18:44:23;0.4;;;0.4;;
78079;SDS011;67298;51.322;5.958;2023-04-03T18:49:03;1.1;;;0.8;;
78079;SDS011;67298;51.322;5.958;2023-04-03T18:53:48;0.9;;;0.6;;
78079;SDS011;67298;51.322;5.958;2023-04-03T18:58:28;0.0;;;0.0;;
78079;SDS011;67298;51.322;5.958;2023-04-03T19:03:08;2.1;;;0.9;;
78079;SDS011;67298;51.322;5.958;2023-04-03T19:07:48;0.8;;;0.6;;
78079;SDS011;67298;51.322;5.958;2023-04-03T19:12:28;1.9;;;0.9;;
78079;SDS011;67298;51.322;5.958;2023-04-03T19:17:10;3.0;;;1.0;;
78079;SDS011;67298;51.322;5.958;2023-04-03T19:21:52;0.6;;;0.3;;
78079;SDS011;67298;51.322;5.958;2023-04-03T19:26:32;1.7;;;0.6;;
78079;SDS011;67298;51.322;5.958;2023-04-03T19:31:14;1.5;;;0.3;;
78079;SDS011;67298;51.322;5.958;2023-04-03T19:35:54;0.9;;;0.4;;
78079;SDS011;67298;51.322;5.958;2023-04-03T19:40:35;1.6;;;0.5;;
78079;SDS011;67298;51.322;5.958;2023-04-03T19:45:16;3.3;;;0.6;;
78079;SDS011;67298;51.322;5.958;2023-04-03T19:49:56;2.5;;;0.8;;
78079;SDS011;67298;51.322;5.958;2023-04-03T19:54:37;0.7;;;0.4;;
78079;SDS011;67298;51.322;5.958;2023-04-03T19:59:17;0.1;;;0.1;;
78079;SDS011;67298;51.322;5.958;2023-04-03T20:03:57;2.5;;;0.6;;
78079;SDS011;67298;51.322;5.958;2023-04-03T20:08:37;0.5;;;0.3;;
78079;SDS011;67298;51.322;5.958;2023-04-03T20:13:18;1.0;;;0.4;;
78079;SDS011;67298;51.322;5.958;2023-04-03T20:17:59;0.3;;;0.3;;
78079;SDS011;67298;51.322;5.958;2023-04-03T20:22:39;0.0;;;0.0;;
78079;SDS011;67298;51.322;5.958;2023-04-03T20:27:19;0.9;;;0.5;;
78079;SDS011;67298;51.322;5.958;2023-04-03T20:32:00;0.9;;;0.5;;
78079;SDS011;67298;51.322;5.958;2023-04-03T20:36:41;1.6;;;0.7;;
78079;SDS011;67298;51.322;5.958;2023-04-03T20:41:21;0.3;;;0.3;;
78079;SDS011;67298;51.322;5.958;2023-04-03T20:46:03;1.6;;;0.6;;
78079;SDS011;67298;51.322;5.958;2023-04-03T20:50:43;1.6;;;0.7;;
78079;SDS011;67298;51.322;5.958;2023-04-03T20:55:23;1.0;;;0.5;;
78079;SDS011;67298;51.322;5.958;2023-04-03T21:00:03;0.0;;;0.0;;
78079;SDS011;67298;51.322;5.958;2023-04-03T21:04:43;0.5;;;0.5;;
78079;SDS011;67298;51.322;5.958;2023-04-03T21:09:24;3.9;;;0.6;;
78079;SDS011;67298;51.322;5.958;2023-04-03T21:14:04;2.8;;;1.2;;
78079;SDS011;67298;51.322;5.958;2023-04-03T21:18:44;0.8;;;0.5;;
78079;SDS011;67298;51.322;5.958;2023-04-03T21:23:24;0.6;;;0.4;;
78079;SDS011;67298;51.322;5.958;2023-04-03T21:28:05;1.8;;;0.6;;
78079;SDS011;67298;51.322;5.958;2023-04-03T21:32:45;1.4;;;0.8;;
78079;SDS011;67298;51.322;5.958;2023-04-03T21:37:25;0.0;;;0.0;;
78079;SDS011;67298;51.322;5.958;2023-04-03T21:42:05;2.3;;;1.0;;
78079;SDS011;67298;51.322;5.958;2023-04-03T21:46:45;0.4;;;0.3;;
78079;SDS011;67298;51.322;5.958;2023-04-03T21:51:25;0.7;;;0.4;;
78079;SDS011;67298;51.322;5.958;2023-04-03T21:56:05;4.8;;;0.9;;
78079;SDS011;67298;51.322;5.958;2023-04-03T22:00:45;1.6;;;0.6;;
78079;SDS011;67298;51.322;5.958;2023-04-03T22:05:25;2.0;;;0.8;;
78079;SDS011;67298;51.322;5.958;2023-04-03T22:10:05;1.8;;;0.9;;
78079;SDS011;67298;51.322;5.958;2023-04-03T22:14:46;1.8;;;0.9;;
78079;SDS011;67298;51.322;5.958;2023-04-03T22:19:36;2.8;;;0.9;;
78079;SDS011;67298;51.322;5.958;2023-04-03T22:24:16;2.0;;;0.9;;
78079;SDS011;67298;51.322;5.958;2023-04-03T22:28:56;2.5;;;1.0;;
78079;SDS011;67298;51.322;5.958;2023-04-03T22:33:36;1.7;;;0.7;;
78079;SDS011;67298;51.322;5.958;2023-04-03T22:38:17;0.6;;;0.5;;
78079;SDS011;67298;51.322;5.958;2023-04-03T22:42:59;1.6;;;0.8;;
78079;SDS011;67298;51.322;5.958;2023-04-03T22:47:39;1.2;;;0.9;;
